sensor_id;sensor_type;location;lat;lon;timestamp;temperature;humidity
10270;DHT22;70826;50.930;5.334;2023-11-18T00:00:00;22.40;66.00
10270;DHT22;70826;50.930;5.334;2023-11-18T00:02:33;22.40;66.00
10270;DHT22;70826;50.930;5.334;2023-11-18T00:05:01;22.40;66.00
10270;DHT22;70826;50.930;5.334;2023-11-18T00:07:29;22.40;66.00
10270;DHT22;70826;50.930;5.334;2023-11-18T00:10:00;22.40;66.00
10270;DHT22;70826;50.930;5.334;2023-11-18T00:12:31;22.30;65.90
10270;DHT22;70826;50.930;5.334;2023-11-18T00:15:03;22.40;66.00
10270;DHT22;70826;50.930;5.334;2023-11-18T00:17:34;22.40;66.00
10270;DHT22;70826;50.930;5.334;2023-11-18T00:20:02;22.40;66.00
10270;DHT22;70826;50.930;5.334;2023-11-18T00:22:36;22.40;66.00
10270;DHT22;70826;50.930;5.334;2023-11-18T00:25:05;22.30;65.90
10270;DHT22;70826;50.930;5.334;2023-11-18T00:27:34;22.30;65.80
10270;DHT22;70826;50.930;5.334;2023-11-18T00:30:03;22.40;65.90
10270;DHT22;70826;50.930;5.334;2023-11-18T00:32:43;22.30;65.80
10270;DHT22;70826;50.930;5.334;2023-11-18T00:35:09;22.30;65.80
10270;DHT22;70826;50.930;5.334;2023-11-18T00:37:37;22.30;65.80
10270;DHT22;70826;50.930;5.334;2023-11-18T00:40:07;22.30;65.90
10270;DHT22;70826;50.930;5.334;2023-11-18T00:42:33;22.30;65.90
10270;DHT22;70826;50.930;5.334;2023-11-18T00:45:01;22.30;65.80
10270;DHT22;70826;50.930;5.334;2023-11-18T00:47:27;22.30;65.80
10270;DHT22;70826;50.930;5.334;2023-11-18T00:49:55;22.30;65.80
10270;DHT22;70826;50.930;5.334;2023-11-18T00:52:23;22.30;65.80
10270;DHT22;70826;50.930;5.334;2023-11-18T00:54:51;22.30;65.80
10270;DHT22;70826;50.930;5.334;2023-11-18T00:57:19;22.30;65.80
10270;DHT22;70826;50.930;5.334;2023-11-18T00:59:44;22.30;65.80
10270;DHT22;70826;50.930;5.334;2023-11-18T01:02:17;22.30;65.80
10270;DHT22;70826;50.930;5.334;2023-11-18T01:04:48;22.30;65.80
10270;DHT22;70826;50.930;5.334;2023-11-18T01:07:14;22.30;65.80
10270;DHT22;70826;50.930;5.334;2023-11-18T01:09:44;22.30;65.80
10270;DHT22;70826;50.930;5.334;2023-11-18T01:12:11;22.30;65.70
10270;DHT22;70826;50.930;5.334;2023-11-18T01:14:38;22.30;65.70
10270;DHT22;70826;50.930;5.334;2023-11-18T01:17:10;22.30;65.70
10270;DHT22;70826;50.930;5.334;2023-11-18T01:19:38;22.30;65.70
10270;DHT22;70826;50.930;5.334;2023-11-18T01:22:07;22.30;65.70
10270;DHT22;70826;50.930;5.334;2023-11-18T01:24:35;22.30;65.70
10270;DHT22;70826;50.930;5.334;2023-11-18T01:27:00;22.30;65.70
10270;DHT22;70826;50.930;5.334;2023-11-18T01:29:28;22.30;65.70
10270;DHT22;70826;50.930;5.334;2023-11-18T01:31:56;22.30;65.70
10270;DHT22;70826;50.930;5.334;2023-11-18T01:34:22;22.30;65.70
10270;DHT22;70826;50.930;5.334;2023-11-18T01:36:50;22.30;65.70
10270;DHT22;70826;50.930;5.334;2023-11-18T01:39:21;22.30;66.30
10270;DHT22;70826;50.930;5.334;2023-11-18T01:41:48;22.30;65.70
10270;DHT22;70826;50.930;5.334;2023-11-18T01:44:14;22.30;65.60
10270;DHT22;70826;50.930;5.334;2023-11-18T01:46:43;22.30;65.70
10270;DHT22;70826;50.930;5.334;2023-11-18T01:49:13;22.30;65.60
10270;DHT22;70826;50.930;5.334;2023-11-18T01:51:42;22.30;65.60
10270;DHT22;70826;50.930;5.334;2023-11-18T01:54:09;22.30;65.60
10270;DHT22;70826;50.930;5.334;2023-11-18T01:56:43;22.30;65.70
10270;DHT22;70826;50.930;5.334;2023-11-18T01:59:11;22.30;65.60
10270;DHT22;70826;50.930;5.334;2023-11-18T02:01:47;22.30;65.60
10270;DHT22;70826;50.930;5.334;2023-11-18T02:04:14;22.30;65.70
10270;DHT22;70826;50.930;5.334;2023-11-18T02:06:42;22.30;65.70
10270;DHT22;70826;50.930;5.334;2023-11-18T02:09:10;22.30;65.60
10270;DHT22;70826;50.930;5.334;2023-11-18T02:11:58;22.30;65.60
10270;DHT22;70826;50.930;5.334;2023-11-18T02:14:27;22.30;65.60
10270;DHT22;70826;50.930;5.334;2023-11-18T02:16:59;22.30;65.60
10270;DHT22;70826;50.930;5.334;2023-11-18T02:19:30;22.30;65.60
10270;DHT22;70826;50.930;5.334;2023-11-18T02:21:59;22.30;65.60
10270;DHT22;70826;50.930;5.334;2023-11-18T02:24:32;22.30;65.60
10270;DHT22;70826;50.930;5.334;2023-11-18T02:27:06;22.30;65.60
10270;DHT22;70826;50.930;5.334;2023-11-18T02:29:38;22.30;65.60
10270;DHT22;70826;50.930;5.334;2023-11-18T02:37:27;22.30;65.70
10270;DHT22;70826;50.930;5.334;2023-11-18T02:40:07;22.30;66.30
10270;DHT22;70826;50.930;5.334;2023-11-18T02:42:39;22.30;65.60
10270;DHT22;70826;50.930;5.334;2023-11-18T02:45:12;22.30;65.60
10270;DHT22;70826;50.930;5.334;2023-11-18T02:47:40;22.30;65.60
10270;DHT22;70826;50.930;5.334;2023-11-18T02:50:09;22.30;65.50
10270;DHT22;70826;50.930;5.334;2023-11-18T02:52:38;22.30;65.50
10270;DHT22;70826;50.930;5.334;2023-11-18T02:55:07;22.30;65.60
10270;DHT22;70826;50.930;5.334;2023-11-18T02:57:36;22.30;65.60
10270;DHT22;70826;50.930;5.334;2023-11-18T03:00:09;22.30;65.50
10270;DHT22;70826;50.930;5.334;2023-11-18T03:02:42;22.30;65.50
10270;DHT22;70826;50.930;5.334;2023-11-18T03:05:08;22.30;65.50
10270;DHT22;70826;50.930;5.334;2023-11-18T03:07:43;22.30;65.50
10270;DHT22;70826;50.930;5.334;2023-11-18T03:10:12;22.20;65.50
10270;DHT22;70826;50.930;5.334;2023-11-18T03:12:50;22.30;65.50
10270;DHT22;70826;50.930;5.334;2023-11-18T03:15:19;22.30;65.50
10270;DHT22;70826;50.930;5.334;2023-11-18T03:17:50;22.30;65.50
10270;DHT22;70826;50.930;5.334;2023-11-18T03:20:16;22.20;65.50
10270;DHT22;70826;50.930;5.334;2023-11-18T03:22:44;22.20;65.50
10270;DHT22;70826;50.930;5.334;2023-11-18T03:25:13;22.20;65.40
10270;DHT22;70826;50.930;5.334;2023-11-18T03:27:39;22.20;65.50
10270;DHT22;70826;50.930;5.334;2023-11-18T03:30:08;22.20;65.50
10270;DHT22;70826;50.930;5.334;2023-11-18T03:32:40;22.20;65.50
10270;DHT22;70826;50.930;5.334;2023-11-18T03:35:07;22.20;65.40
10270;DHT22;70826;50.930;5.334;2023-11-18T03:37:43;22.20;65.40
10270;DHT22;70826;50.930;5.334;2023-11-18T03:40:10;22.20;65.40
10270;DHT22;70826;50.930;5.334;2023-11-18T03:42:41;22.20;65.40
10270;DHT22;70826;50.930;5.334;2023-11-18T03:45:12;22.20;65.50
10270;DHT22;70826;50.930;5.334;2023-11-18T03:47:43;22.20;65.40
10270;DHT22;70826;50.930;5.334;2023-11-18T03:50:13;22.20;65.50
10270;DHT22;70826;50.930;5.334;2023-11-18T03:52:41;22.20;65.50
10270;DHT22;70826;50.930;5.334;2023-11-18T03:55:11;22.20;65.50
10270;DHT22;70826;50.930;5.334;2023-11-18T03:57:39;22.20;65.40
10270;DHT22;70826;50.930;5.334;2023-11-18T04:00:05;22.20;65.40
10270;DHT22;70826;50.930;5.334;2023-11-18T04:02:31;22.20;65.40
10270;DHT22;70826;50.930;5.334;2023-11-18T04:05:01;22.20;65.40
10270;DHT22;70826;50.930;5.334;2023-11-18T04:07:29;22.20;65.40
10270;DHT22;70826;50.930;5.334;2023-11-18T04:10:01;22.20;65.40
10270;DHT22;70826;50.930;5.334;2023-11-18T04:12:27;22.20;65.40
10270;DHT22;70826;50.930;5.334;2023-11-18T04:14:55;22.20;65.40
10270;DHT22;70826;50.930;5.334;2023-11-18T04:17:23;22.20;65.40
10270;DHT22;70826;50.930;5.334;2023-11-18T04:19:51;22.20;65.40
10270;DHT22;70826;50.930;5.334;2023-11-18T04:22:17;22.20;65.30
10270;DHT22;70826;50.930;5.334;2023-11-18T04:24:45;22.20;65.30
10270;DHT22;70826;50.930;5.334;2023-11-18T04:27:11;22.20;65.30
10270;DHT22;70826;50.930;5.334;2023-11-18T04:29:36;22.20;65.30
10270;DHT22;70826;50.930;5.334;2023-11-18T04:32:03;22.20;65.40
10270;DHT22;70826;50.930;5.334;2023-11-18T04:34:34;22.20;65.40
10270;DHT22;70826;50.930;5.334;2023-11-18T04:37:07;22.20;65.40
10270;DHT22;70826;50.930;5.334;2023-11-18T04:39:33;22.20;65.30
10270;DHT22;70826;50.930;5.334;2023-11-18T04:42:04;22.20;66.00
10270;DHT22;70826;50.930;5.334;2023-11-18T04:44:32;22.20;65.30
10270;DHT22;70826;50.930;5.334;2023-11-18T04:46:58;22.20;65.30
10270;DHT22;70826;50.930;5.334;2023-11-18T04:49:25;22.20;65.40
10270;DHT22;70826;50.930;5.334;2023-11-18T04:51:53;22.20;65.30
10270;DHT22;70826;50.930;5.334;2023-11-18T04:54:21;22.20;65.40
10270;DHT22;70826;50.930;5.334;2023-11-18T04:56:47;22.10;65.40
10270;DHT22;70826;50.930;5.334;2023-11-18T04:59:13;22.20;65.50
10270;DHT22;70826;50.930;5.334;2023-11-18T05:01:41;22.20;65.40
10270;DHT22;70826;50.930;5.334;2023-11-18T05:04:06;22.20;65.40
10270;DHT22;70826;50.930;5.334;2023-11-18T05:06:34;22.20;65.40
10270;DHT22;70826;50.930;5.334;2023-11-18T05:09:00;22.20;65.40
10270;DHT22;70826;50.930;5.334;2023-11-18T05:11:26;22.20;65.30
10270;DHT22;70826;50.930;5.334;2023-11-18T05:13:53;22.20;65.40
10270;DHT22;70826;50.930;5.334;2023-11-18T05:16:22;22.20;65.40
10270;DHT22;70826;50.930;5.334;2023-11-18T05:18:47;22.10;65.30
10270;DHT22;70826;50.930;5.334;2023-11-18T05:21:15;22.20;65.40
10270;DHT22;70826;50.930;5.334;2023-11-18T05:23:41;22.20;65.30
10270;DHT22;70826;50.930;5.334;2023-11-18T05:26:09;22.20;65.30
10270;DHT22;70826;50.930;5.334;2023-11-18T05:28:34;22.10;65.30
10270;DHT22;70826;50.930;5.334;2023-11-18T05:31:03;22.20;65.30
10270;DHT22;70826;50.930;5.334;2023-11-18T05:33:30;22.10;65.90
10270;DHT22;70826;50.930;5.334;2023-11-18T05:35:59;22.10;65.30
10270;DHT22;70826;50.930;5.334;2023-11-18T05:38:30;22.20;65.30
10270;DHT22;70826;50.930;5.334;2023-11-18T05:41:02;22.10;65.30
10270;DHT22;70826;50.930;5.334;2023-11-18T05:43:31;22.10;65.20
10270;DHT22;70826;50.930;5.334;2023-11-18T05:46:06;22.10;65.30
10270;DHT22;70826;50.930;5.334;2023-11-18T05:48:50;22.10;65.30
10270;DHT22;70826;50.930;5.334;2023-11-18T05:51:20;22.10;65.30
10270;DHT22;70826;50.930;5.334;2023-11-18T05:53:47;22.10;65.30
10270;DHT22;70826;50.930;5.334;2023-11-18T05:56:15;22.10;65.30
10270;DHT22;70826;50.930;5.334;2023-11-18T05:58:44;22.10;65.40
10270;DHT22;70826;50.930;5.334;2023-11-18T06:01:13;22.10;65.30
10270;DHT22;70826;50.930;5.334;2023-11-18T06:03:41;22.10;65.30
10270;DHT22;70826;50.930;5.334;2023-11-18T06:06:11;22.10;65.40
10270;DHT22;70826;50.930;5.334;2023-11-18T06:08:40;22.10;65.40
10270;DHT22;70826;50.930;5.334;2023-11-18T06:11:15;22.10;65.30
10270;DHT22;70826;50.930;5.334;2023-11-18T06:13:46;22.10;65.30
10270;DHT22;70826;50.930;5.334;2023-11-18T06:16:20;22.10;65.30
10270;DHT22;70826;50.930;5.334;2023-11-18T06:21:24;22.10;65.30
10270;DHT22;70826;50.930;5.334;2023-11-18T06:23:53;22.10;65.30
10270;DHT22;70826;50.930;5.334;2023-11-18T06:26:20;22.10;65.30
10270;DHT22;70826;50.930;5.334;2023-11-18T06:28:49;22.10;65.30
10270;DHT22;70826;50.930;5.334;2023-11-18T06:31:17;22.10;65.30
10270;DHT22;70826;50.930;5.334;2023-11-18T06:33:46;22.10;65.30
10270;DHT22;70826;50.930;5.334;2023-11-18T06:38:44;22.10;65.40
10270;DHT22;70826;50.930;5.334;2023-11-18T06:41:13;22.10;65.40
10270;DHT22;70826;50.930;5.334;2023-11-18T06:43:45;22.10;65.40
10270;DHT22;70826;50.930;5.334;2023-11-18T06:46:32;22.10;65.40
10270;DHT22;70826;50.930;5.334;2023-11-18T06:49:03;22.10;65.40
10270;DHT22;70826;50.930;5.334;2023-11-18T06:51:32;22.10;65.40
10270;DHT22;70826;50.930;5.334;2023-11-18T06:54:00;22.10;65.40
10270;DHT22;70826;50.930;5.334;2023-11-18T06:56:30;22.10;65.40
10270;DHT22;70826;50.930;5.334;2023-11-18T06:58:58;22.10;65.40
10270;DHT22;70826;50.930;5.334;2023-11-18T07:01:29;22.10;65.40
10270;DHT22;70826;50.930;5.334;2023-11-18T07:03:56;22.10;65.30
10270;DHT22;70826;50.930;5.334;2023-11-18T07:06:24;22.10;65.40
10270;DHT22;70826;50.930;5.334;2023-11-18T07:08:53;22.10;65.40
10270;DHT22;70826;50.930;5.334;2023-11-18T07:11:19;22.10;65.30
10270;DHT22;70826;50.930;5.334;2023-11-18T07:13:49;22.10;65.30
10270;DHT22;70826;50.930;5.334;2023-11-18T07:16:17;22.10;65.30
10270;DHT22;70826;50.930;5.334;2023-11-18T07:18:48;22.10;65.40
10270;DHT22;70826;50.930;5.334;2023-11-18T07:21:13;22.10;65.40
10270;DHT22;70826;50.930;5.334;2023-11-18T07:23:41;22.10;65.40
10270;DHT22;70826;50.930;5.334;2023-11-18T07:26:10;22.10;65.40
10270;DHT22;70826;50.930;5.334;2023-11-18T07:28:39;22.10;65.40
10270;DHT22;70826;50.930;5.334;2023-11-18T07:31:07;22.10;65.40
10270;DHT22;70826;50.930;5.334;2023-11-18T07:33:34;22.10;65.40
10270;DHT22;70826;50.930;5.334;2023-11-18T07:36:00;22.10;65.40
10270;DHT22;70826;50.930;5.334;2023-11-18T07:38:31;22.10;65.40
10270;DHT22;70826;50.930;5.334;2023-11-18T07:40:59;22.10;65.40
10270;DHT22;70826;50.930;5.334;2023-11-18T07:43:30;22.10;65.30
10270;DHT22;70826;50.930;5.334;2023-11-18T07:45:58;22.10;65.30
10270;DHT22;70826;50.930;5.334;2023-11-18T07:48:26;22.10;65.30
10270;DHT22;70826;50.930;5.334;2023-11-18T07:50:56;22.10;65.40
10270;DHT22;70826;50.930;5.334;2023-11-18T07:53:24;22.10;65.40
10270;DHT22;70826;50.930;5.334;2023-11-18T07:55:51;22.10;65.40
10270;DHT22;70826;50.930;5.334;2023-11-18T07:58:19;22.10;65.40
10270;DHT22;70826;50.930;5.334;2023-11-18T08:00:50;22.10;65.40
10270;DHT22;70826;50.930;5.334;2023-11-18T08:03:18;22.10;65.50
10270;DHT22;70826;50.930;5.334;2023-11-18T08:05:49;22.10;65.40
10270;DHT22;70826;50.930;5.334;2023-11-18T08:08:16;22.10;65.40
10270;DHT22;70826;50.930;5.334;2023-11-18T08:10:50;22.10;65.50
10270;DHT22;70826;50.930;5.334;2023-11-18T08:13:23;22.10;65.50
10270;DHT22;70826;50.930;5.334;2023-11-18T08:15:49;22.10;65.50
10270;DHT22;70826;50.930;5.334;2023-11-18T08:18:14;22.10;65.50
10270;DHT22;70826;50.930;5.334;2023-11-18T08:20:43;22.10;65.50
10270;DHT22;70826;50.930;5.334;2023-11-18T08:23:13;22.10;65.50
10270;DHT22;70826;50.930;5.334;2023-11-18T08:25:41;22.10;65.60
10270;DHT22;70826;50.930;5.334;2023-11-18T08:28:09;22.10;65.50
10270;DHT22;70826;50.930;5.334;2023-11-18T08:30:37;22.10;65.60
10270;DHT22;70826;50.930;5.334;2023-11-18T08:33:03;22.00;65.70
10270;DHT22;70826;50.930;5.334;2023-11-18T08:35:35;22.00;66.10
10270;DHT22;70826;50.930;5.334;2023-11-18T08:38:03;22.00;66.90
10270;DHT22;70826;50.930;5.334;2023-11-18T08:40:32;22.00;66.30
10270;DHT22;70826;50.930;5.334;2023-11-18T08:43:04;22.10;66.50
10270;DHT22;70826;50.930;5.334;2023-11-18T08:45:33;22.10;66.50
10270;DHT22;70826;50.930;5.334;2023-11-18T08:48:00;22.20;66.70
10270;DHT22;70826;50.930;5.334;2023-11-18T08:50:32;22.20;67.00
10270;DHT22;70826;50.930;5.334;2023-11-18T08:53:04;22.20;67.10
10270;DHT22;70826;50.930;5.334;2023-11-18T08:55:32;22.10;67.00
10270;DHT22;70826;50.930;5.334;2023-11-18T08:58:20;22.20;67.00
10270;DHT22;70826;50.930;5.334;2023-11-18T09:01:01;22.20;67.00
10270;DHT22;70826;50.930;5.334;2023-11-18T09:03:33;22.20;66.90
10270;DHT22;70826;50.930;5.334;2023-11-18T09:06:11;22.30;66.90
10270;DHT22;70826;50.930;5.334;2023-11-18T09:08:53;22.30;66.60
10270;DHT22;70826;50.930;5.334;2023-11-18T09:11:22;22.30;66.50
10270;DHT22;70826;50.930;5.334;2023-11-18T09:13:53;22.40;66.40
10270;DHT22;70826;50.930;5.334;2023-11-18T09:16:20;22.40;66.20
10270;DHT22;70826;50.930;5.334;2023-11-18T09:18:57;22.50;66.40
10270;DHT22;70826;50.930;5.334;2023-11-18T09:21:27;22.50;65.90
10270;DHT22;70826;50.930;5.334;2023-11-18T09:23:58;22.60;65.80
10270;DHT22;70826;50.930;5.334;2023-11-18T09:26:23;22.70;65.60
10270;DHT22;70826;50.930;5.334;2023-11-18T09:28:53;22.80;65.50
10270;DHT22;70826;50.930;5.334;2023-11-18T09:31:21;22.80;65.40
10270;DHT22;70826;50.930;5.334;2023-11-18T09:33:46;22.90;65.30
10270;DHT22;70826;50.930;5.334;2023-11-18T09:36:18;22.90;65.20
10270;DHT22;70826;50.930;5.334;2023-11-18T09:38:46;22.90;65.10
10270;DHT22;70826;50.930;5.334;2023-11-18T09:41:14;23.00;65.10
10270;DHT22;70826;50.930;5.334;2023-11-18T09:43:45;23.00;65.00
10270;DHT22;70826;50.930;5.334;2023-11-18T09:46:25;23.00;65.00
10270;DHT22;70826;50.930;5.334;2023-11-18T09:51:46;23.00;65.00
10270;DHT22;70826;50.930;5.334;2023-11-18T09:54:29;23.00;65.00
10270;DHT22;70826;50.930;5.334;2023-11-18T09:57:23;22.90;65.50
10270;DHT22;70826;50.930;5.334;2023-11-18T10:00:01;22.90;64.90
10270;DHT22;70826;50.930;5.334;2023-11-18T10:02:39;22.90;64.90
10270;DHT22;70826;50.930;5.334;2023-11-18T10:05:10;22.90;64.90
10270;DHT22;70826;50.930;5.334;2023-11-18T10:07:43;22.90;64.90
10270;DHT22;70826;50.930;5.334;2023-11-18T10:10:10;22.90;64.90
10270;DHT22;70826;50.930;5.334;2023-11-18T10:12:47;22.90;65.00
10270;DHT22;70826;50.930;5.334;2023-11-18T10:15:23;22.80;65.00
10270;DHT22;70826;50.930;5.334;2023-11-18T10:17:52;22.80;65.00
10270;DHT22;70826;50.930;5.334;2023-11-18T10:20:49;22.80;65.00
10270;DHT22;70826;50.930;5.334;2023-11-18T10:23:19;22.80;65.10
10270;DHT22;70826;50.930;5.334;2023-11-18T10:25:46;22.80;65.10
10270;DHT22;70826;50.930;5.334;2023-11-18T10:31:03;22.70;65.20
10270;DHT22;70826;50.930;5.334;2023-11-18T10:33:37;22.70;65.20
10270;DHT22;70826;50.930;5.334;2023-11-18T10:36:06;22.70;65.30
10270;DHT22;70826;50.930;5.334;2023-11-18T10:38:42;22.70;65.30
10270;DHT22;70826;50.930;5.334;2023-11-18T10:41:17;22.60;65.30
10270;DHT22;70826;50.930;5.334;2023-11-18T10:43:47;22.60;65.30
10270;DHT22;70826;50.930;5.334;2023-11-18T10:46:18;22.60;65.40
10270;DHT22;70826;50.930;5.334;2023-11-18T10:48:48;22.60;65.40
10270;DHT22;70826;50.930;5.334;2023-11-18T10:51:24;22.60;65.40
10270;DHT22;70826;50.930;5.334;2023-11-18T10:53:52;22.60;65.50
10270;DHT22;70826;50.930;5.334;2023-11-18T10:56:24;22.50;65.50
10270;DHT22;70826;50.930;5.334;2023-11-18T10:59:05;22.50;65.50
10270;DHT22;70826;50.930;5.334;2023-11-18T11:01:43;22.50;65.60
10270;DHT22;70826;50.930;5.334;2023-11-18T11:04:11;22.50;65.60
10270;DHT22;70826;50.930;5.334;2023-11-18T11:06:41;22.50;65.70
10270;DHT22;70826;50.930;5.334;2023-11-18T11:09:08;22.50;65.70
10270;DHT22;70826;50.930;5.334;2023-11-18T11:14:24;22.50;65.80
10270;DHT22;70826;50.930;5.334;2023-11-18T11:17:03;22.50;65.80
10270;DHT22;70826;50.930;5.334;2023-11-18T11:20:06;22.50;65.80
10270;DHT22;70826;50.930;5.334;2023-11-18T11:28:20;22.40;65.90
10270;DHT22;70826;50.930;5.334;2023-11-18T11:30:50;22.40;65.90
10270;DHT22;70826;50.930;5.334;2023-11-18T11:36:21;22.40;66.00
10270;DHT22;70826;50.930;5.334;2023-11-18T11:38:52;22.40;66.10
10270;DHT22;70826;50.930;5.334;2023-11-18T11:41:23;22.40;66.20
10270;DHT22;70826;50.930;5.334;2023-11-18T11:43:52;22.40;66.30
10270;DHT22;70826;50.930;5.334;2023-11-18T11:46:25;22.40;66.40
10270;DHT22;70826;50.930;5.334;2023-11-18T11:49:02;22.40;66.50
10270;DHT22;70826;50.930;5.334;2023-11-18T11:51:48;22.40;66.60
10270;DHT22;70826;50.930;5.334;2023-11-18T11:54:23;22.40;66.60
10270;DHT22;70826;50.930;5.334;2023-11-18T11:56:58;22.40;67.40
10270;DHT22;70826;50.930;5.334;2023-11-18T12:02:21;22.30;66.60
10270;DHT22;70826;50.930;5.334;2023-11-18T12:04:56;22.40;66.60
10270;DHT22;70826;50.930;5.334;2023-11-18T12:07:29;22.40;66.70
10270;DHT22;70826;50.930;5.334;2023-11-18T12:10:08;22.30;66.70
10270;DHT22;70826;50.930;5.334;2023-11-18T12:12:46;22.40;66.70
10270;DHT22;70826;50.930;5.334;2023-11-18T12:15:14;22.30;66.70
10270;DHT22;70826;50.930;5.334;2023-11-18T12:23:13;22.30;66.80
10270;DHT22;70826;50.930;5.334;2023-11-18T12:25:46;22.30;66.70
10270;DHT22;70826;50.930;5.334;2023-11-18T12:28:17;22.30;66.80
10270;DHT22;70826;50.930;5.334;2023-11-18T12:30:52;22.30;66.80
10270;DHT22;70826;50.930;5.334;2023-11-18T12:33:24;22.30;66.70
10270;DHT22;70826;50.930;5.334;2023-11-18T12:46:57;22.30;66.90
10270;DHT22;70826;50.930;5.334;2023-11-18T12:49:37;22.30;66.90
10270;DHT22;70826;50.930;5.334;2023-11-18T12:52:07;22.30;67.10
10270;DHT22;70826;50.930;5.334;2023-11-18T12:54:34;22.20;67.30
10270;DHT22;70826;50.930;5.334;2023-11-18T12:57:07;22.20;67.30
10270;DHT22;70826;50.930;5.334;2023-11-18T12:59:34;22.20;67.60
10270;DHT22;70826;50.930;5.334;2023-11-18T13:01:59;22.10;68.10
10270;DHT22;70826;50.930;5.334;2023-11-18T13:04:30;22.10;68.50
10270;DHT22;70826;50.930;5.334;2023-11-18T13:07:04;22.00;68.70
10270;DHT22;70826;50.930;5.334;2023-11-18T13:09:30;22.00;69.10
10270;DHT22;70826;50.930;5.334;2023-11-18T13:12:02;22.00;69.20
10270;DHT22;70826;50.930;5.334;2023-11-18T13:14:32;22.00;69.20
10270;DHT22;70826;50.930;5.334;2023-11-18T13:17:18;22.10;69.00
10270;DHT22;70826;50.930;5.334;2023-11-18T13:19:44;22.30;68.80
10270;DHT22;70826;50.930;5.334;2023-11-18T13:22:12;22.30;68.80
10270;DHT22;70826;50.930;5.334;2023-11-18T13:24:41;22.40;68.70
10270;DHT22;70826;50.930;5.334;2023-11-18T13:27:14;22.40;68.50
10270;DHT22;70826;50.930;5.334;2023-11-18T13:29:44;22.50;68.40
10270;DHT22;70826;50.930;5.334;2023-11-18T13:32:11;22.50;68.30
10270;DHT22;70826;50.930;5.334;2023-11-18T13:34:40;22.50;68.20
10270;DHT22;70826;50.930;5.334;2023-11-18T13:37:08;22.50;68.40
10270;DHT22;70826;50.930;5.334;2023-11-18T13:39:36;22.60;68.30
10270;DHT22;70826;50.930;5.334;2023-11-18T13:42:26;22.60;68.20
10270;DHT22;70826;50.930;5.334;2023-11-18T13:45:08;22.60;68.50
10270;DHT22;70826;50.930;5.334;2023-11-18T13:47:41;22.60;68.70
10270;DHT22;70826;50.930;5.334;2023-11-18T13:50:08;22.60;68.60
10270;DHT22;70826;50.930;5.334;2023-11-18T13:52:34;22.70;68.60
10270;DHT22;70826;50.930;5.334;2023-11-18T13:55:03;22.80;68.80
10270;DHT22;70826;50.930;5.334;2023-11-18T13:57:32;22.80;69.00
10270;DHT22;70826;50.930;5.334;2023-11-18T13:59:58;22.80;69.00
10270;DHT22;70826;50.930;5.334;2023-11-18T14:02:26;22.90;69.10
10270;DHT22;70826;50.930;5.334;2023-11-18T14:04:52;22.90;69.10
10270;DHT22;70826;50.930;5.334;2023-11-18T14:07:23;22.90;69.10
10270;DHT22;70826;50.930;5.334;2023-11-18T14:09:51;22.90;69.10
10270;DHT22;70826;50.930;5.334;2023-11-18T14:12:22;22.90;69.10
10270;DHT22;70826;50.930;5.334;2023-11-18T14:14:50;23.00;69.20
10270;DHT22;70826;50.930;5.334;2023-11-18T14:17:15;23.00;69.20
10270;DHT22;70826;50.930;5.334;2023-11-18T14:19:44;23.00;69.20
10270;DHT22;70826;50.930;5.334;2023-11-18T14:22:12;23.00;69.20
10270;DHT22;70826;50.930;5.334;2023-11-18T14:24:38;23.10;69.00
10270;DHT22;70826;50.930;5.334;2023-11-18T14:27:06;23.10;68.80
10270;DHT22;70826;50.930;5.334;2023-11-18T14:29:35;23.10;68.60
10270;DHT22;70826;50.930;5.334;2023-11-18T14:32:01;23.20;68.50
10270;DHT22;70826;50.930;5.334;2023-11-18T14:34:31;23.30;68.40
10270;DHT22;70826;50.930;5.334;2023-11-18T14:37:01;23.30;68.20
10270;DHT22;70826;50.930;5.334;2023-11-18T14:39:27;23.20;68.00
10270;DHT22;70826;50.930;5.334;2023-11-18T14:41:57;23.30;68.00
10270;DHT22;70826;50.930;5.334;2023-11-18T14:44:25;23.30;67.90
10270;DHT22;70826;50.930;5.334;2023-11-18T14:46:58;23.20;67.80
10270;DHT22;70826;50.930;5.334;2023-11-18T14:49:27;23.30;67.80
10270;DHT22;70826;50.930;5.334;2023-11-18T14:51:57;23.30;67.70
10270;DHT22;70826;50.930;5.334;2023-11-18T14:54:23;23.20;67.60
10270;DHT22;70826;50.930;5.334;2023-11-18T14:56:51;23.20;67.50
10270;DHT22;70826;50.930;5.334;2023-11-18T14:59:19;23.10;67.50
10270;DHT22;70826;50.930;5.334;2023-11-18T15:01:50;23.10;67.40
10270;DHT22;70826;50.930;5.334;2023-11-18T15:04:17;23.10;67.50
10270;DHT22;70826;50.930;5.334;2023-11-18T15:06:45;23.10;67.50
10270;DHT22;70826;50.930;5.334;2023-11-18T15:09:20;23.10;67.40
10270;DHT22;70826;50.930;5.334;2023-11-18T15:11:50;23.10;67.40
10270;DHT22;70826;50.930;5.334;2023-11-18T15:14:19;23.00;67.40
10270;DHT22;70826;50.930;5.334;2023-11-18T15:16:47;23.00;67.40
10270;DHT22;70826;50.930;5.334;2023-11-18T15:19:12;23.00;67.40
10270;DHT22;70826;50.930;5.334;2023-11-18T15:21:40;22.90;67.40
10270;DHT22;70826;50.930;5.334;2023-11-18T15:24:06;22.90;67.40
10270;DHT22;70826;50.930;5.334;2023-11-18T15:26:35;22.90;67.40
10270;DHT22;70826;50.930;5.334;2023-11-18T15:29:03;22.90;67.40
10270;DHT22;70826;50.930;5.334;2023-11-18T15:31:35;22.90;67.40
10270;DHT22;70826;50.930;5.334;2023-11-18T15:34:00;22.90;67.40
10270;DHT22;70826;50.930;5.334;2023-11-18T15:36:26;22.80;67.40
10270;DHT22;70826;50.930;5.334;2023-11-18T15:38:56;22.80;67.40
10270;DHT22;70826;50.930;5.334;2023-11-18T15:41:29;22.80;67.50
10270;DHT22;70826;50.930;5.334;2023-11-18T15:43:55;22.80;67.50
10270;DHT22;70826;50.930;5.334;2023-11-18T15:46:25;22.70;67.50
10270;DHT22;70826;50.930;5.334;2023-11-18T15:48:51;22.80;68.20
10270;DHT22;70826;50.930;5.334;2023-11-18T15:51:21;22.70;67.50
10270;DHT22;70826;50.930;5.334;2023-11-18T15:53:47;22.70;67.50
10270;DHT22;70826;50.930;5.334;2023-11-18T15:56:13;22.70;67.60
10270;DHT22;70826;50.930;5.334;2023-11-18T15:58:43;22.70;67.60
10270;DHT22;70826;50.930;5.334;2023-11-18T16:01:09;22.70;67.60
10270;DHT22;70826;50.930;5.334;2023-11-18T16:03:37;22.70;68.30
10270;DHT22;70826;50.930;5.334;2023-11-18T16:06:09;22.70;67.70
10270;DHT22;70826;50.930;5.334;2023-11-18T16:08:38;22.60;67.70
10270;DHT22;70826;50.930;5.334;2023-11-18T16:11:04;22.60;67.70
10270;DHT22;70826;50.930;5.334;2023-11-18T16:13:36;22.60;67.70
10270;DHT22;70826;50.930;5.334;2023-11-18T16:16:05;22.60;67.70
10270;DHT22;70826;50.930;5.334;2023-11-18T16:18:34;22.60;67.80
10270;DHT22;70826;50.930;5.334;2023-11-18T16:21:04;22.60;67.80
10270;DHT22;70826;50.930;5.334;2023-11-18T16:23:34;22.60;67.80
10270;DHT22;70826;50.930;5.334;2023-11-18T16:26:03;22.60;67.80
10270;DHT22;70826;50.930;5.334;2023-11-18T16:28:29;22.60;67.80
10270;DHT22;70826;50.930;5.334;2023-11-18T16:30:55;22.60;67.90
10270;DHT22;70826;50.930;5.334;2023-11-18T16:33:29;22.60;67.90